Pagrindinis puslapis
METAR-TAF:

METAR-TAF

Oro uostai :

Erebru, Švedija

platuma: 59-14N, ilguma: 015-03E, Aukštis: 57 m

Dabartinis oras

Ataskaita buvo paskelbta 34 minutes, ne 22:20 UTC
Vėjas 5 kt iš Pietų
Temperatūra 14°C
Drėgmė 77%
Slėgis 1019 hPa
Matomumas 10 km arba daugiau

METAR: ESOE 022220Z AUTO 19005KT 9999 NCD 14/10 Q1019

Laikas: 00:54 (22:54 UTC)

Prognozė

Ataskaita buvo paskelbta 32 valandos ir 24 minutes, ne 14:30 UTC
Prognozė galioja nuo 01 metu 15 UTC su 01 metu 21 UTC
Vėjas 3 kt nuo kintamojo kryptimis
Matomumas 10 km arba daugiau
Išsisklaidę debesys ne aukštis 3500 ft

TAF: ESOE 011430Z 0115/0121 VRB03KT 9999 SCT035

Orai ataskaitas ir orų prognozės (METAR, TAF).

turimą stotys yra geltonos ir raudonos taškus žemėlapyje.

Perkelti pele per norėdami pamatyti stoties vardą.

Tada spustelėkite, norėdami matyti oro stebėjimo ir prognozės.

Norėdami pakeisti žemėlapį: spustelėkite ant žalios mygtukų su juodo kryžiaus žemyn,; žalią mygtuką su brūkšneliu, jei norite nutolinti; arba žalių rodyklių gretimoms žemėlapius.


METAR-TAF: